Terminal Aerodrome Forecast
Issued by NWS

Home | Current Version | Previous Version | Text Only | Print | Product List | Glossary On
Versions: 1 2 3 4 5 6 7 8 9 10 11 12 13 14 15 16 17 18 19 20 21 22 23 24 25 26 27 28 29 30 31 32 33 34 35
000
FTUS45 KTWC 030700 AAA
TAFOLS
TAF AMD
KOLS 030739Z 0308/0406 18005KT P6SM VCSH FEW010 SCT015 OVC020
      TEMPO 0308/0310 -SHRA OVC010
     FM031100 VRB04KT P6SM FEW015 SCT025 BKN060
     FM031400 18007KT P6SM SCT060 SCT200
     FM031900 22013G21KT P6SM SCT060 BKN120
     FM040300 18008KT P6SM BKN060=

USA.gov is the U.S. government's official web portal to all federal, state and local government web resources and services.